createdAt,value
2023-01-09T00:01:13.695Z,5.20
2023-01-09T00:03:41.457Z,7.87
2023-01-09T00:06:09.178Z,5.37
2023-01-09T00:08:38.570Z,5.60
2023-01-09T00:11:06.819Z,4.80
2023-01-09T00:13:34.971Z,5.00
2023-01-09T00:16:02.709Z,6.18
2023-01-09T00:18:30.409Z,5.53
2023-01-09T00:21:00.721Z,5.10
2023-01-09T00:23:28.577Z,5.93
2023-01-09T00:26:04.998Z,4.93
2023-01-09T00:28:33.357Z,5.73
2023-01-09T00:31:02.797Z,5.30
2023-01-09T00:33:32.696Z,5.27
2023-01-09T00:36:00.468Z,5.80
2023-01-09T00:38:28.512Z,5.03
2023-01-09T00:40:57.351Z,6.03
2023-01-09T00:43:32.052Z,5.70
2023-01-09T00:46:01.963Z,6.20
2023-01-09T00:48:29.777Z,6.50
2023-01-09T00:51:00.198Z,6.27
2023-01-09T00:53:32.304Z,5.63
2023-01-09T00:56:03.115Z,5.30
2023-01-09T00:58:33.458Z,4.93
2023-01-09T01:01:01.475Z,5.53
2023-01-09T01:03:29.589Z,5.07
2023-01-09T01:06:14.837Z,5.50
2023-01-09T01:08:42.662Z,5.50
2023-01-09T01:11:12.469Z,5.70
2023-01-09T01:13:42.860Z,5.50
2023-01-09T01:16:12.411Z,6.40
2023-01-09T01:18:40.863Z,5.50
2023-01-09T01:21:09.569Z,5.80
2023-01-09T01:23:38.020Z,5.60
2023-01-09T01:26:06.982Z,6.80
2023-01-09T01:28:34.799Z,8.87
2023-01-09T01:31:03.982Z,6.33
2023-01-09T01:33:32.088Z,5.70
2023-01-09T01:36:04.060Z,5.40
2023-01-09T01:38:31.887Z,5.70
2023-01-09T01:41:00.399Z,6.50
2023-01-09T01:43:28.108Z,5.53
2023-01-09T01:45:56.225Z,6.27
2023-01-09T01:48:29.965Z,7.50
2023-01-09T01:51:00.243Z,6.80
2023-01-09T01:53:32.725Z,7.00
2023-01-09T01:56:06.928Z,6.20
2023-01-09T01:58:37.220Z,7.00
2023-01-09T02:01:05.663Z,5.80
2023-01-09T02:03:35.935Z,6.97
2023-01-09T02:06:05.096Z,7.50
2023-01-09T02:08:33.148Z,7.97
2023-01-09T02:11:02.229Z,7.70
2023-01-09T02:13:30.637Z,6.00
2023-01-09T02:16:11.641Z,8.90
2023-01-09T02:18:48.420Z,6.87
2023-01-09T02:21:27.446Z,6.70
2023-01-09T02:24:11.287Z,7.20
2023-01-09T02:27:31.167Z,7.20
2023-01-09T02:30:23.588Z,7.20
2023-01-09T02:32:59.499Z,7.17
2023-01-09T02:35:49.003Z,9.00
2023-01-09T02:38:28.879Z,6.90
2023-01-09T02:41:03.310Z,6.70
2023-01-09T02:43:33.065Z,7.13
2023-01-09T02:46:02.301Z,6.90
2023-01-09T02:48:31.226Z,11.43
2023-01-09T02:51:11.014Z,6.90
2023-01-09T02:54:03.013Z,7.20
2023-01-09T02:56:45.102Z,6.13
2023-01-09T02:59:21.489Z,6.90
2023-01-09T03:01:58.804Z,7.70
2023-01-09T03:04:39.452Z,12.00
2023-01-09T03:07:14.165Z,7.43
2023-01-09T03:09:43.984Z,7.40
2023-01-09T03:12:16.464Z,6.80
2023-01-09T03:14:48.358Z,7.10
2023-01-09T03:17:22.470Z,6.63
2023-01-09T03:19:51.860Z,5.97
2023-01-09T03:22:19.699Z,6.10
2023-01-09T03:24:47.530Z,6.50
2023-01-09T03:27:15.950Z,7.77
2023-01-09T03:29:43.771Z,5.80
2023-01-09T03:32:11.650Z,5.97
2023-01-09T03:34:40.706Z,5.77
2023-01-09T03:37:08.431Z,5.40
2023-01-09T03:39:36.138Z,5.70
2023-01-09T03:42:03.844Z,5.10
2023-01-09T03:44:31.567Z,5.30
2023-01-09T03:46:59.261Z,5.17
2023-01-09T03:49:26.956Z,5.10
2023-01-09T03:51:55.992Z,5.07
2023-01-09T03:54:23.827Z,5.57
2023-01-09T03:56:51.558Z,5.80
2023-01-09T03:59:19.298Z,5.80
2023-01-09T04:01:47.063Z,5.10
2023-01-09T04:04:14.956Z,5.40
2023-01-09T04:06:42.645Z,5.70
2023-01-09T04:09:11.679Z,5.00
2023-01-09T04:11:39.381Z,5.60
2023-01-09T04:14:07.059Z,5.03
2023-01-09T04:16:34.851Z,5.13
2023-01-09T04:19:02.709Z,5.13
2023-01-09T04:21:30.443Z,4.90
2023-01-09T04:23:58.136Z,5.00
2023-01-09T04:26:27.231Z,5.33
2023-01-09T04:28:55.023Z,5.40
2023-01-09T04:31:22.721Z,6.80
2023-01-09T04:33:50.458Z,4.70
2023-01-09T04:36:18.168Z,6.77
2023-01-09T04:38:45.873Z,5.83
2023-01-09T04:41:33.914Z,4.80
2023-01-09T04:44:02.989Z,5.50
2023-01-09T04:46:30.735Z,4.80
2023-01-09T04:48:58.475Z,5.37
2023-01-09T04:51:26.195Z,5.30
2023-01-09T04:53:53.899Z,6.50
2023-01-09T04:56:21.653Z,5.68
2023-01-09T04:58:49.373Z,5.37
2023-01-09T05:01:18.479Z,4.90
2023-01-09T05:03:46.266Z,4.83
2023-01-09T05:06:14.072Z,5.17
2023-01-09T05:08:41.765Z,4.83
2023-01-09T05:11:09.470Z,5.00
2023-01-09T05:13:37.166Z,5.03
2023-01-09T05:16:05.168Z,5.03
2023-01-09T05:18:34.282Z,7.20
2023-01-09T05:21:02.338Z,5.10
2023-01-09T05:23:30.090Z,5.43
2023-01-09T05:25:57.802Z,5.30
2023-01-09T05:28:25.523Z,5.47
2023-01-09T05:30:53.244Z,5.10
2023-01-09T05:33:21.049Z,5.30
2023-01-09T05:35:50.106Z,5.50
2023-01-09T05:38:17.899Z,5.50
2023-01-09T05:40:45.678Z,5.17
2023-01-09T05:43:13.405Z,6.37
2023-01-09T05:45:41.139Z,5.33
2023-01-09T05:48:08.976Z,5.80
2023-01-09T05:50:36.689Z,5.50
2023-01-09T05:53:06.649Z,5.10
2023-01-09T05:55:34.454Z,5.07
2023-01-09T05:58:02.316Z,4.90
2023-01-09T06:00:30.047Z,4.90
2023-01-09T06:02:57.867Z,5.10
2023-01-09T06:05:25.653Z,5.10
2023-01-09T06:07:53.373Z,4.90
2023-01-09T06:10:22.491Z,6.27
2023-01-09T06:12:51.671Z,5.20
2023-01-09T06:15:20.505Z,5.00
2023-01-09T06:17:48.520Z,5.10
2023-01-09T06:20:16.312Z,5.73
2023-01-09T06:22:44.723Z,6.23
2023-01-09T06:25:12.723Z,6.37
2023-01-09T06:27:41.759Z,5.57
2023-01-09T06:30:10.663Z,7.70
2023-01-09T06:32:38.362Z,6.00
2023-01-09T06:35:06.747Z,6.43
2023-01-09T06:37:34.486Z,5.47
2023-01-09T06:40:02.156Z,5.70
2023-01-09T06:42:29.868Z,5.30
2023-01-09T06:44:58.925Z,5.30
2023-01-09T06:47:26.640Z,5.33
2023-01-09T06:49:54.328Z,6.93
2023-01-09T06:52:22.061Z,5.40
2023-01-09T06:54:49.768Z,6.40
2023-01-09T06:57:17.532Z,5.80
2023-01-09T06:59:45.218Z,5.97
2023-01-09T07:02:19.503Z,5.40
2023-01-09T07:04:47.394Z,5.63
2023-01-09T07:07:15.637Z,6.37
2023-01-09T07:09:43.345Z,6.40
2023-01-09T07:12:11.065Z,5.30
2023-01-09T07:14:38.788Z,8.47
2023-01-09T07:17:06.672Z,6.97
2023-01-09T07:19:35.722Z,6.70
2023-01-09T07:22:03.500Z,8.30
2023-01-09T07:24:31.194Z,8.40
2023-01-09T07:26:59.024Z,6.80
2023-01-09T07:29:26.793Z,7.47
2023-01-09T07:31:54.500Z,6.33
2023-01-09T07:34:22.256Z,5.60
2023-01-09T07:36:51.742Z,6.53
2023-01-09T07:39:19.503Z,6.10
2023-01-09T07:41:47.441Z,8.30
2023-01-09T07:44:15.658Z,7.03
2023-01-09T07:46:43.344Z,7.63
2023-01-09T07:49:11.204Z,7.07
2023-01-09T07:51:42.892Z,6.07
2023-01-09T07:54:12.574Z,5.00
2023-01-09T07:56:40.637Z,8.33
2023-01-09T07:59:08.405Z,5.60
2023-01-09T08:01:36.399Z,6.90
2023-01-09T08:04:04.316Z,5.37
2023-01-09T08:06:32.532Z,8.33
2023-01-09T08:09:00.686Z,7.70
2023-01-09T08:11:29.719Z,5.20
2023-01-09T08:13:57.439Z,6.00
2023-01-09T08:16:25.159Z,5.00
2023-01-09T08:18:52.869Z,7.40
2023-01-09T08:21:20.554Z,6.50
2023-01-09T08:23:48.305Z,5.83
2023-01-09T08:26:16.022Z,5.70
2023-01-09T08:28:45.139Z,5.10
2023-01-09T08:31:12.890Z,4.70
2023-01-09T08:33:40.716Z,5.10
2023-01-09T08:36:09.061Z,8.40
2023-01-09T08:38:36.851Z,5.60
2023-01-09T08:41:24.552Z,6.07
2023-01-09T08:44:11.345Z,4.83
2023-01-09T08:46:56.860Z,8.30
2023-01-09T08:49:24.550Z,5.77
2023-01-09T08:51:52.277Z,5.93
2023-01-09T08:54:19.991Z,4.97
2023-01-09T08:56:47.756Z,7.00
2023-01-09T08:59:17.160Z,9.53
2023-01-09T09:01:44.965Z,7.00
2023-01-09T09:04:12.648Z,5.00
2023-01-09T09:06:40.472Z,5.50
2023-01-09T09:09:08.229Z,5.30
2023-01-09T09:11:36.151Z,6.33
2023-01-09T09:14:25.658Z,5.77
2023-01-09T09:16:55.152Z,5.10
2023-01-09T09:19:23.149Z,8.43
2023-01-09T09:21:50.842Z,9.07
2023-01-09T09:24:18.595Z,6.23
2023-01-09T09:26:46.274Z,7.17
2023-01-09T09:29:14.188Z,5.70
2023-01-09T09:31:41.928Z,5.83
2023-01-09T09:34:12.865Z,7.40
2023-01-09T09:36:40.613Z,7.73
2023-01-09T09:39:09.194Z,8.60
2023-01-09T09:42:26.287Z,7.47
2023-01-09T09:45:08.301Z,6.60
2023-01-09T09:47:45.737Z,9.17
2023-01-09T09:50:29.896Z,8.23
2023-01-09T09:53:03.688Z,5.63
2023-01-09T09:55:34.680Z,4.80
2023-01-09T09:58:05.508Z,5.20
2023-01-09T10:00:33.666Z,5.40
2023-01-09T10:03:04.681Z,5.10
2023-01-09T10:05:36.222Z,5.73
2023-01-09T10:08:15.831Z,6.27
2023-01-09T10:10:48.845Z,6.23
2023-01-09T10:13:37.207Z,7.00
2023-01-09T10:16:13.180Z,8.40
2023-01-09T10:18:50.900Z,9.00
2023-01-09T10:21:23.540Z,5.00
2023-01-09T10:24:13.315Z,7.83
2023-01-09T10:26:47.656Z,5.53
2023-01-09T10:29:42.866Z,6.77
2023-01-09T10:32:27.640Z,5.80
2023-01-09T10:35:06.781Z,4.90
2023-01-09T10:37:39.894Z,6.60
2023-01-09T10:40:19.067Z,5.57
2023-01-09T10:42:51.464Z,5.87
2023-01-09T10:45:23.525Z,5.97
2023-01-09T10:47:51.355Z,6.93
2023-01-09T10:50:24.576Z,6.50
2023-01-09T10:52:55.419Z,5.63
2023-01-09T10:55:33.581Z,5.97
2023-01-09T10:58:05.345Z,5.40
2023-01-09T11:00:33.050Z,5.87
2023-01-09T11:03:00.774Z,5.30
2023-01-09T11:05:32.698Z,5.00
2023-01-09T11:08:07.317Z,4.87
2023-01-09T11:10:47.807Z,5.30
2023-01-09T11:13:20.761Z,6.33
2023-01-09T11:16:01.115Z,5.00
2023-01-09T11:18:28.966Z,4.80
2023-01-09T11:20:56.708Z,6.00
2023-01-09T11:23:28.704Z,5.90
2023-01-09T11:25:58.671Z,5.47
2023-01-09T11:28:26.768Z,5.50
2023-01-09T11:30:56.760Z,5.20
2023-01-09T11:33:27.262Z,5.10
2023-01-09T11:36:05.671Z,5.77
2023-01-09T11:38:48.246Z,5.47
2023-01-09T11:41:19.425Z,5.00
2023-01-09T11:43:49.527Z,6.70
2023-01-09T11:46:35.587Z,5.10
2023-01-09T11:49:04.891Z,4.80
2023-01-09T11:51:34.167Z,5.83
2023-01-09T11:54:27.091Z,5.03
2023-01-09T11:56:55.725Z,8.10
2023-01-09T11:59:27.725Z,6.27
2023-01-09T12:02:25.809Z,5.50
2023-01-09T12:04:57.151Z,5.30
2023-01-09T12:07:41.100Z,6.80
2023-01-09T12:10:30.690Z,8.53
2023-01-09T12:13:08.775Z,5.33
2023-01-09T12:15:44.107Z,8.10
2023-01-09T12:18:25.296Z,5.23
2023-01-09T12:21:08.576Z,5.10
2023-01-09T12:24:01.550Z,6.30
2023-01-09T12:26:33.201Z,5.47
2023-01-09T12:29:19.099Z,5.40
2023-01-09T12:31:59.857Z,5.70
2023-01-09T12:34:42.168Z,6.87
2023-01-09T12:37:30.089Z,4.40
2023-01-09T12:40:07.847Z,6.37
2023-01-09T12:42:48.769Z,5.70
2023-01-09T12:45:39.067Z,4.90
2023-01-09T12:48:16.691Z,5.20
2023-01-09T12:51:20.707Z,5.47
2023-01-09T12:53:56.561Z,5.90
2023-01-09T12:56:30.182Z,6.40
2023-01-09T12:59:05.873Z,5.63
2023-01-09T13:01:38.922Z,4.53
2023-01-09T13:04:14.662Z,5.27
2023-01-09T13:06:50.940Z,5.27
2023-01-09T13:09:25.881Z,5.57
2023-01-09T13:12:01.958Z,5.43
2023-01-09T13:14:48.339Z,4.90
2023-01-09T13:17:22.450Z,5.10
2023-01-09T13:19:50.266Z,4.70
2023-01-09T13:22:19.042Z,4.80
2023-01-09T13:25:06.951Z,5.03
2023-01-09T13:27:39.655Z,5.53
2023-01-09T13:30:21.564Z,4.43
2023-01-09T13:33:01.623Z,5.20
2023-01-09T13:35:29.642Z,5.83
2023-01-09T13:37:57.466Z,5.90
2023-01-09T13:40:30.324Z,5.10
2023-01-09T13:42:58.690Z,7.37
2023-01-09T13:45:29.721Z,4.70
2023-01-09T13:48:34.210Z,4.50
2023-01-09T13:51:37.513Z,6.23
2023-01-09T13:54:05.383Z,5.43
2023-01-09T13:56:33.123Z,5.43
2023-01-09T13:59:03.711Z,6.57
2023-01-09T14:01:43.684Z,7.30
2023-01-09T14:04:54.177Z,5.83
2023-01-09T14:07:24.403Z,6.50
2023-01-09T14:09:56.524Z,5.83
2023-01-09T14:12:24.998Z,4.97
2023-01-09T14:14:56.054Z,6.20
2023-01-09T14:17:31.750Z,6.93
2023-01-09T14:20:02.213Z,5.47
2023-01-09T14:22:42.439Z,7.00
2023-01-09T14:25:23.560Z,5.30
2023-01-09T14:28:08.259Z,10.70
2023-01-09T14:30:38.214Z,5.83
2023-01-09T14:33:27.349Z,4.80
2023-01-09T14:36:04.510Z,5.40
2023-01-09T14:38:35.047Z,5.50
2023-01-09T14:41:09.938Z,5.70
2023-01-09T14:43:49.249Z,5.20
2023-01-09T14:46:19.269Z,6.17
2023-01-09T14:48:59.876Z,5.23
2023-01-09T14:51:30.322Z,5.53
2023-01-09T14:54:00.671Z,5.43
2023-01-09T14:56:30.502Z,4.70
2023-01-09T14:59:06.180Z,5.20
2023-01-09T15:01:36.574Z,5.80
2023-01-09T15:04:11.515Z,6.23
2023-01-09T15:06:43.824Z,6.97
2023-01-09T15:09:29.705Z,5.70
2023-01-09T15:12:03.959Z,4.80
2023-01-09T15:14:34.782Z,4.90
2023-01-09T15:17:04.827Z,4.73
2023-01-09T15:19:34.600Z,5.30
2023-01-09T15:22:04.449Z,7.30
2023-01-09T15:24:34.292Z,5.20
2023-01-09T15:27:05.153Z,4.67
2023-01-09T15:29:32.958Z,5.30
2023-01-09T15:32:06.008Z,6.30
2023-01-09T15:34:35.601Z,5.50
2023-01-09T15:37:03.785Z,4.87
2023-01-09T15:39:36.871Z,4.60
2023-01-09T15:42:22.774Z,5.70
2023-01-09T15:44:53.681Z,5.70
2023-01-09T15:47:27.647Z,4.93
2023-01-09T15:49:58.565Z,5.50
2023-01-09T15:52:27.200Z,5.10
2023-01-09T15:54:54.904Z,4.80
2023-01-09T15:57:36.805Z,4.93
2023-01-09T16:00:24.425Z,4.90
2023-01-09T16:03:10.443Z,5.70
2023-01-09T16:05:43.312Z,5.70
2023-01-09T16:08:25.984Z,5.27
2023-01-09T16:10:55.177Z,4.90
2023-01-09T16:13:25.305Z,5.33
2023-01-09T16:15:53.807Z,6.22
2023-01-09T16:18:24.275Z,5.40
2023-01-09T16:21:06.771Z,5.60
2023-01-09T16:23:36.520Z,5.00
2023-01-09T16:26:06.865Z,6.97
2023-01-09T16:28:34.623Z,5.00
2023-01-09T16:31:08.036Z,5.63
2023-01-09T16:33:36.302Z,5.77
2023-01-09T16:36:06.201Z,4.90
2023-01-09T16:38:34.455Z,6.13
2023-01-09T16:41:21.822Z,5.43
2023-01-09T16:43:50.667Z,5.30
2023-01-09T16:46:21.071Z,5.70
2023-01-09T16:48:49.178Z,4.90
2023-01-09T16:51:21.503Z,5.60
2023-01-09T16:53:49.547Z,6.20
2023-01-09T16:56:21.930Z,5.17
2023-01-09T16:58:50.327Z,5.23
2023-01-09T17:01:18.125Z,4.70
2023-01-09T17:03:47.714Z,5.57
2023-01-09T17:06:20.797Z,5.30
2023-01-09T17:08:48.513Z,5.20
2023-01-09T17:11:21.956Z,6.00
2023-01-09T17:13:50.228Z,5.50
2023-01-09T17:16:19.489Z,5.07
2023-01-09T17:18:47.393Z,5.20
2023-01-09T17:21:21.804Z,5.30
2023-01-09T17:24:10.077Z,5.60
2023-01-09T17:26:56.667Z,5.90
2023-01-09T17:29:24.980Z,5.30
2023-01-09T17:31:52.724Z,6.37
2023-01-09T17:34:20.627Z,5.53
2023-01-09T17:36:49.703Z,6.50
2023-01-09T17:39:18.676Z,6.03
2023-01-09T17:41:46.348Z,5.63
2023-01-09T17:44:14.178Z,5.60
2023-01-09T17:46:43.353Z,6.30
2023-01-09T17:49:16.417Z,5.87
2023-01-09T17:51:44.121Z,6.80
2023-01-09T17:54:13.717Z,6.80
2023-01-09T17:56:44.568Z,5.30
2023-01-09T17:59:12.937Z,6.00
2023-01-09T18:01:41.015Z,6.10
2023-01-09T18:04:09.121Z,6.10
2023-01-09T18:06:37.438Z,6.47
2023-01-09T18:09:06.395Z,5.63
2023-01-09T18:11:35.908Z,5.27
2023-01-09T18:14:03.621Z,5.70
2023-01-09T18:16:31.462Z,5.83
2023-01-09T18:19:00.007Z,6.23
2023-01-09T18:21:29.396Z,9.13
2023-01-09T18:23:57.959Z,7.20
2023-01-09T18:26:25.659Z,7.53
2023-01-09T18:28:57.342Z,7.90
2023-01-09T18:31:27.217Z,7.20
2023-01-09T18:33:56.667Z,6.60
2023-01-09T18:36:29.225Z,15.03
2023-01-09T18:38:57.718Z,6.07
2023-01-09T18:41:25.897Z,7.30
2023-01-09T18:43:58.082Z,7.00
2023-01-09T18:46:26.037Z,7.20
2023-01-09T18:48:53.951Z,11.00
2023-01-09T18:51:22.718Z,7.50
2023-01-09T18:53:51.098Z,8.80
2023-01-09T18:56:19.904Z,8.23
2023-01-09T18:58:48.082Z,8.47
2023-01-09T19:01:17.674Z,5.77
2023-01-09T19:03:46.095Z,5.87
2023-01-09T19:06:13.914Z,8.67
2023-01-09T19:08:41.720Z,6.90
2023-01-09T19:11:09.574Z,8.13
2023-01-09T19:13:38.523Z,7.70
2023-01-09T19:16:08.208Z,7.43
2023-01-09T19:18:39.456Z,10.73
2023-01-09T19:21:12.262Z,8.70
2023-01-09T19:23:41.052Z,8.10
2023-01-09T19:26:10.092Z,9.20
2023-01-09T19:28:42.075Z,6.30
2023-01-09T19:31:09.778Z,9.67
2023-01-09T19:33:39.609Z,6.77
2023-01-09T19:36:08.024Z,7.77
2023-01-09T19:38:35.863Z,7.40
2023-01-09T19:41:09.487Z,12.50
2023-01-09T19:43:39.897Z,7.77
2023-01-09T19:46:09.406Z,8.43
2023-01-09T19:48:39.011Z,10.27
2023-01-09T19:51:08.843Z,8.93
2023-01-09T19:53:37.092Z,7.93
2023-01-09T19:56:09.905Z,9.00
2023-01-09T19:58:37.688Z,8.07
2023-01-09T20:01:12.577Z,7.13
2023-01-09T20:03:42.952Z,7.60
2023-01-09T20:06:14.280Z,10.37
2023-01-09T20:08:42.491Z,9.27
2023-01-09T20:11:10.238Z,10.80
2023-01-09T20:13:38.380Z,10.73
2023-01-09T20:16:07.328Z,12.10
2023-01-09T20:18:36.051Z,7.60
2023-01-09T20:21:05.473Z,8.50
2023-01-09T20:23:34.187Z,8.60
2023-01-09T20:26:03.408Z,9.03
2023-01-09T20:28:31.229Z,11.90
2023-01-09T20:30:58.920Z,8.57
2023-01-09T20:33:26.647Z,9.73
2023-01-09T20:35:54.368Z,7.67
2023-01-09T20:38:25.347Z,9.90
2023-01-09T20:40:53.112Z,9.52
2023-01-09T20:43:20.816Z,8.33
2023-01-09T20:45:48.616Z,8.07
2023-01-09T20:48:16.338Z,9.33
2023-01-09T20:50:44.130Z,9.68
2023-01-09T20:53:11.805Z,8.60
2023-01-09T20:55:41.300Z,6.67
2023-01-09T20:58:09.003Z,11.27
2023-01-09T21:00:36.716Z,8.47
2023-01-09T21:03:05.419Z,6.80
2023-01-09T21:05:33.156Z,8.47
2023-01-09T21:08:00.924Z,9.17
2023-01-09T21:10:28.655Z,10.13
2023-01-09T21:12:57.661Z,7.43
2023-01-09T21:15:25.328Z,7.20
2023-01-09T21:17:53.174Z,6.40
2023-01-09T21:20:20.893Z,7.23
2023-01-09T21:22:49.153Z,10.67
2023-01-09T21:25:17.391Z,8.30
2023-01-09T21:27:45.913Z,7.70
2023-01-09T21:30:15.256Z,12.20
2023-01-09T21:32:42.927Z,9.77
2023-01-09T21:35:10.749Z,7.87
2023-01-09T21:37:38.537Z,7.78
2023-01-09T21:40:08.859Z,7.23
2023-01-09T21:42:54.174Z,6.53
2023-01-09T21:45:40.763Z,8.00
2023-01-09T21:48:08.940Z,9.77
2023-01-09T21:50:37.157Z,8.47
2023-01-09T21:53:05.283Z,13.13
2023-01-09T21:55:32.981Z,9.27
2023-01-09T21:58:01.724Z,9.40
2023-01-09T22:00:30.996Z,7.67
2023-01-09T22:02:58.981Z,11.03
2023-01-09T22:05:27.092Z,7.73
2023-01-09T22:07:56.192Z,8.13
2023-01-09T22:10:23.872Z,13.47
2023-01-09T22:13:10.500Z,11.23
2023-01-09T22:15:41.220Z,7.80
2023-01-09T22:18:08.936Z,10.13
2023-01-09T22:20:37.709Z,9.93
2023-01-09T22:23:05.499Z,17.80
2023-01-09T22:25:33.235Z,13.90
2023-01-09T22:28:01.007Z,8.70
2023-01-09T22:30:28.723Z,10.60
2023-01-09T22:32:57.772Z,15.00
2023-01-09T22:35:25.512Z,11.80
2023-01-09T22:37:53.196Z,9.90
2023-01-09T22:40:20.918Z,15.00
2023-01-09T22:42:52.679Z,11.43
2023-01-09T22:45:20.383Z,10.93
2023-01-09T22:47:48.087Z,13.47
2023-01-09T22:50:17.559Z,10.30
2023-01-09T22:52:45.324Z,13.37
2023-01-09T22:55:12.989Z,15.57
2023-01-09T22:57:40.753Z,13.87
2023-01-09T23:00:10.213Z,13.33
2023-01-09T23:02:38.456Z,7.90
2023-01-09T23:05:07.113Z,14.67
2023-01-09T23:07:37.301Z,9.13
2023-01-09T23:10:06.047Z,10.00
2023-01-09T23:12:34.089Z,14.23
2023-01-09T23:15:01.773Z,13.77
2023-01-09T23:17:29.574Z,14.20
2023-01-09T23:19:57.332Z,13.00
2023-01-09T23:22:25.895Z,9.57
2023-01-09T23:24:54.971Z,8.70
2023-01-09T23:27:22.667Z,12.53
2023-01-09T23:29:50.362Z,9.37
2023-01-09T23:32:18.365Z,10.47
2023-01-09T23:34:47.272Z,10.47
2023-01-09T23:37:15.058Z,9.03
2023-01-09T23:39:42.804Z,10.73
2023-01-09T23:42:29.786Z,11.80
2023-01-09T23:44:57.490Z,11.53
2023-01-09T23:47:25.213Z,14.93
2023-01-09T23:49:52.997Z,8.97
2023-01-09T23:52:20.773Z,14.17
2023-01-09T23:54:48.529Z,9.17
2023-01-09T23:57:17.555Z,12.57
2023-01-09T23:59:45.215Z,9.67
